Last 30 Days

Alpine-Summit 8643' (Ward Mt.)

Daily Data | America/Los_Angeles
as of 10/18/19 7:44 AM PDT
Date Daily Max Temp (°F) Max Temp Time Daily Min Temp (°F) Min Temp Time Wind Spd (mph) Daily Max Wind (mph) Max RH (%) Min RH (%) Wet Bulb (°F)
10/17/19 40.6 0000 29.0 2346 32.6 77.1 100 42 31.8
10/16/19 54.5 1444 40.5 2358 39.2 73.0 42 21 33.5
10/15/19 57.7 1528 43.6 0238 19.6 47.7 38 17 35.2
10/14/19 58.4 1525 39.2 0736 10.2 28.2 40 20 33.4
10/13/19 52.6 1555 37.8 0612 20.6 39.4 46 17 31.3
10/12/19 55.9 1612 41.4 2351 9.2 27.4 46 18 35.3
10/11/19 56.2 1505 31.9 0158 12.5 34.1 37 16 30.7
10/10/19 41.2 1549 21.5 0631 50.9 83.7 67 17 23.7
10/9/19 48.2 1445 26.2 2358 35.3 77.6 68 40 32.0
10/8/19 58.2 1359 41.2 2358 28.9 52.2 55 19 36.5
10/7/19 60.6 1540 47.6 0752 23.9 39.6 47 15 36.8
10/6/19 63.2 1533 35.8 0708 23.4 48.9 68 32 38.8
10/5/19 57.9 1451 40.2 2359 17.5 41.7 60 4 33.7
10/4/19 50.6 1605 27.4 0702 22.3 55.6 91 20 30.1
10/3/19 46.8 1527 30.5 2328 39.6 62.2 79 39 32.8
10/2/19 50.8 1646 28.1 0308 14.4 32.8 92 10 31.4
10/1/19 45.8 1634 21.9 0024 4.5 26.9 99 39 27.3
9/30/19 31.4 1709 22.2 2357 8.6 25.8 98 85 25.0
9/29/19 32.4 1632 22.0 0727 14.5 27.6 99 84 24.7
9/28/19 41.9 0032 23.6 2311 41.1 72.2 100 73 33.0
9/27/19 58.8 1527 41.2 2316 40.7 74.9 99 53 44.8
9/26/19 65.6 1417 49.5 2347 25.7 46.9 85 42 48.1
9/25/19 65.5 1630 49.3 0643 37.6 56.2 74 44 47.3
9/24/19 67.9 1714 43.8 0647 36.5 66.0 73 28 43.5
9/23/19 57.2 1710 38.3 0727 28.7 70.1 92 39 40.5
9/22/19 55.8 1316 40.4 2353 27.2 46.7 91 41 41.7
9/21/19 61.8 1744 35.8 0558 19.9 44.3 90 34 39.3
9/20/19 57.4 1558 31.8 0421 17.3 44.2 100 46 37.3
9/19/19 45.6 1538 32.0 0718 19.0 46.9 100 78 34.9
9/18/19 40.2 0000 32.4 2344 42.1 68.0 100 36 34.3
Max 67.9 - 49.5 - 50.9 83.7 100 85 48.1
Avg - - - - 25.4 - - - 35.0
Min 31.4 - 21.5 - 4.5 25.8 37 4 23.7